createdAt,value
2022-08-27T00:01:20.994Z,7.88
2022-08-27T00:03:47.658Z,7.15
2022-08-27T00:06:16.507Z,8.10
2022-08-27T00:08:45.839Z,10.10
2022-08-27T00:11:13.259Z,9.80
2022-08-27T00:13:40.139Z,9.18
2022-08-27T00:16:09.877Z,11.38
2022-08-27T00:18:38.188Z,11.02
2022-08-27T00:21:05.118Z,10.63
2022-08-27T00:23:34.574Z,10.48
2022-08-27T00:26:01.341Z,10.25
2022-08-27T00:28:29.005Z,10.93
2022-08-27T00:30:56.419Z,11.25
2022-08-27T00:33:24.471Z,13.25
2022-08-27T00:35:51.719Z,12.20
2022-08-27T00:38:20.490Z,13.80
2022-08-27T00:40:47.140Z,14.30
2022-08-27T00:43:14.274Z,13.25
2022-08-27T00:45:45.876Z,13.77
2022-08-27T00:48:18.341Z,14.60
2022-08-27T00:50:52.055Z,14.83
2022-08-27T00:53:23.224Z,15.05
2022-08-27T00:55:55.184Z,15.40
2022-08-27T00:58:31.405Z,15.80
2022-08-27T01:01:00.068Z,16.15
2022-08-27T01:03:27.712Z,16.65
2022-08-27T01:05:58.622Z,15.70
2022-08-27T01:08:28.258Z,14.35
2022-08-27T01:10:58.495Z,15.35
2022-08-27T01:13:53.465Z,15.48
2022-08-27T01:16:23.883Z,15.23
2022-08-27T01:18:51.419Z,15.73
2022-08-27T01:21:53.918Z,14.55
2022-08-27T01:24:34.610Z,13.57
2022-08-27T01:27:03.116Z,15.15
2022-08-27T01:29:30.884Z,16.23
2022-08-27T01:32:10.074Z,16.38
2022-08-27T01:34:38.149Z,16.25
2022-08-27T01:37:06.627Z,16.75
2022-08-27T01:39:39.507Z,15.88
2022-08-27T01:42:11.782Z,16.33
2022-08-27T01:44:47.851Z,15.73
2022-08-27T01:47:15.111Z,18.70
2022-08-27T01:49:41.745Z,18.33
2022-08-27T01:52:08.866Z,16.55
2022-08-27T01:54:35.734Z,17.73
2022-08-27T01:57:02.322Z,17.85
2022-08-27T01:59:33.627Z,18.75
2022-08-27T02:02:07.505Z,19.98
2022-08-27T02:04:34.225Z,17.67
2022-08-27T02:07:00.807Z,18.75
2022-08-27T02:09:27.479Z,18.35
2022-08-27T02:11:54.187Z,19.38
2022-08-27T02:14:20.759Z,19.25
2022-08-27T02:16:52.717Z,18.77
2022-08-27T02:19:20.461Z,18.52
2022-08-27T02:21:47.574Z,18.98
2022-08-27T02:24:14.231Z,18.98
2022-08-27T02:26:41.623Z,20.13
2022-08-27T02:29:08.713Z,20.33
2022-08-27T02:31:35.459Z,19.67
2022-08-27T02:34:02.062Z,19.90
2022-08-27T02:36:28.711Z,20.92
2022-08-27T02:38:56.006Z,21.48
2022-08-27T02:41:23.269Z,21.67
2022-08-27T02:43:50.061Z,21.55
2022-08-27T02:46:17.073Z,22.27
2022-08-27T02:48:44.966Z,22.58
2022-08-27T02:51:11.620Z,21.42
2022-08-27T02:53:38.303Z,20.25
2022-08-27T02:56:06.411Z,21.63
2022-08-27T02:58:33.772Z,20.60
2022-08-27T03:01:01.890Z,22.02
2022-08-27T03:03:31.987Z,21.60
2022-08-27T03:05:59.300Z,22.10
2022-08-27T03:08:27.458Z,21.98
2022-08-27T03:10:57.380Z,20.45
2022-08-27T03:13:26.148Z,21.77
2022-08-27T03:15:53.693Z,21.48
2022-08-27T03:18:21.937Z,22.10
2022-08-27T03:20:56.839Z,20.83
2022-08-27T03:23:26.438Z,22.30
2022-08-27T03:25:56.634Z,23.35
2022-08-27T03:28:26.024Z,23.30
2022-08-27T03:30:58.571Z,21.85
2022-08-27T03:33:26.279Z,22.23
2022-08-27T03:35:53.066Z,21.88
2022-08-27T03:38:20.453Z,23.38
2022-08-27T03:40:47.615Z,23.92
2022-08-27T03:43:16.568Z,22.58
2022-08-27T03:46:00.637Z,22.65
2022-08-27T03:50:56.114Z,21.25
2022-08-27T03:53:22.727Z,21.58
2022-08-27T03:55:49.478Z,23.42
2022-08-27T03:58:16.951Z,21.38
2022-08-27T04:00:43.892Z,22.40
2022-08-27T04:03:13.453Z,23.42
2022-08-27T04:05:40.862Z,20.95
2022-08-27T04:08:10.080Z,20.92
2022-08-27T04:10:40.590Z,20.10
2022-08-27T04:13:07.215Z,20.65
2022-08-27T04:15:34.341Z,21.10
2022-08-27T04:18:06.103Z,20.25
2022-08-27T04:20:35.551Z,20.85
2022-08-27T04:23:02.764Z,21.38
2022-08-27T04:25:29.537Z,22.33
2022-08-27T04:27:56.190Z,19.80
2022-08-27T04:30:22.745Z,19.55
2022-08-27T04:32:49.357Z,19.95
2022-08-27T04:35:16.138Z,21.02
2022-08-27T04:37:43.251Z,18.90
2022-08-27T04:40:10.466Z,20.30
2022-08-27T04:42:37.179Z,19.35
2022-08-27T04:45:04.649Z,19.48
2022-08-27T04:47:31.304Z,19.10
2022-08-27T04:49:57.926Z,18.90
2022-08-27T04:52:25.127Z,17.70
2022-08-27T04:54:52.030Z,16.52
2022-08-27T04:57:18.883Z,16.92
2022-08-27T04:59:45.602Z,17.77
2022-08-27T05:02:12.845Z,16.42
2022-08-27T05:04:40.655Z,17.88
2022-08-27T05:07:09.007Z,17.75
2022-08-27T05:09:35.807Z,15.90
2022-08-27T05:12:02.662Z,16.70
2022-08-27T05:14:30.341Z,16.50
2022-08-27T05:16:58.863Z,16.60
2022-08-27T05:19:25.831Z,15.23
2022-08-27T05:21:53.873Z,15.15
2022-08-27T05:24:21.808Z,15.63
2022-08-27T05:26:49.902Z,16.13
2022-08-27T05:29:17.155Z,15.52
2022-08-27T05:31:43.830Z,15.52
2022-08-27T05:34:22.049Z,16.20
2022-08-27T05:36:53.223Z,14.20
2022-08-27T05:39:19.780Z,15.48
2022-08-27T05:41:46.348Z,15.43
2022-08-27T05:44:39.637Z,15.85
2022-08-27T05:46:59.858Z,14.05
2022-08-27T05:49:26.496Z,15.57
2022-08-27T05:51:53.120Z,13.43
2022-08-27T05:54:20.028Z,13.25
2022-08-27T05:56:49.430Z,13.07
2022-08-27T05:59:35.068Z,13.15
2022-08-27T06:02:02.321Z,14.70
2022-08-27T06:04:28.879Z,12.32
2022-08-27T06:06:55.457Z,12.32
2022-08-27T06:09:24.666Z,12.05
2022-08-27T06:11:54.302Z,12.68
2022-08-27T06:14:21.087Z,12.65
2022-08-27T06:16:48.724Z,10.77
2022-08-27T06:19:15.914Z,11.60
2022-08-27T06:21:42.808Z,12.32
2022-08-27T06:24:12.210Z,11.57
2022-08-27T06:26:40.513Z,12.82
2022-08-27T06:29:08.085Z,11.13
2022-08-27T06:31:35.731Z,11.55
2022-08-27T06:34:07.600Z,11.13
2022-08-27T06:36:37.210Z,11.93
2022-08-27T06:39:04.831Z,11.52
2022-08-27T06:41:31.607Z,11.55
2022-08-27T06:43:58.516Z,12.02
2022-08-27T06:46:27.625Z,10.52
2022-08-27T06:48:56.194Z,11.20
2022-08-27T06:51:28.502Z,12.10
2022-08-27T06:53:57.632Z,11.27
2022-08-27T06:56:24.783Z,11.25
2022-08-27T06:58:55.839Z,11.25
2022-08-27T07:01:30.370Z,10.38
2022-08-27T07:03:59.033Z,10.68
2022-08-27T07:06:29.110Z,11.73
2022-08-27T07:08:57.204Z,10.60
2022-08-27T07:11:24.284Z,10.73
2022-08-27T07:13:51.381Z,9.95
2022-08-27T07:16:23.227Z,9.95
2022-08-27T07:18:51.754Z,10.35
2022-08-27T07:21:21.761Z,10.68
2022-08-27T07:23:50.775Z,9.95
2022-08-27T07:26:19.449Z,9.75
2022-08-27T07:28:47.718Z,9.65
2022-08-27T07:31:19.069Z,9.55
2022-08-27T07:33:52.297Z,9.75
2022-08-27T07:36:23.145Z,9.03
2022-08-27T07:38:56.606Z,10.23
2022-08-27T07:41:31.139Z,9.57
2022-08-27T07:44:19.831Z,9.57
2022-08-27T07:46:48.784Z,8.60
2022-08-27T07:49:17.463Z,8.98
2022-08-27T07:51:45.172Z,8.55
2022-08-27T07:54:12.061Z,9.07
2022-08-27T07:56:38.739Z,8.80
2022-08-27T07:59:05.346Z,9.23
2022-08-27T08:01:32.096Z,9.10
2022-08-27T08:03:59.088Z,8.60
2022-08-27T08:06:26.048Z,8.68
2022-08-27T08:08:52.767Z,9.15
2022-08-27T08:11:19.979Z,9.05
2022-08-27T08:13:47.382Z,9.02
2022-08-27T08:16:14.862Z,9.13
2022-08-27T08:18:41.425Z,8.35
2022-08-27T08:21:11.159Z,9.15
2022-08-27T08:23:38.549Z,8.70
2022-08-27T08:26:06.226Z,8.50
2022-08-27T08:28:32.855Z,9.02
2022-08-27T08:30:59.776Z,8.60
2022-08-27T08:33:27.772Z,8.80
2022-08-27T08:35:54.702Z,8.45
2022-08-27T08:38:21.396Z,9.30
2022-08-27T08:40:53.333Z,8.57
2022-08-27T08:43:28.226Z,8.63
2022-08-27T08:45:58.436Z,10.07
2022-08-27T08:48:28.196Z,8.60
2022-08-27T08:51:08.881Z,7.85
2022-08-27T08:53:57.572Z,8.23
2022-08-27T08:56:50.811Z,8.93
2022-08-27T08:59:38.143Z,8.02
2022-08-27T09:02:12.655Z,7.88
2022-08-27T09:04:41.289Z,7.28
2022-08-27T09:07:31.391Z,8.93
2022-08-27T09:10:25.791Z,8.63
2022-08-27T09:12:58.968Z,8.45
2022-08-27T09:15:31.260Z,8.15
2022-08-27T09:18:11.117Z,7.78
2022-08-27T09:20:44.783Z,8.52
2022-08-27T09:23:25.687Z,7.90
2022-08-27T09:25:52.401Z,8.18
2022-08-27T09:28:43.839Z,8.57
2022-08-27T09:31:15.112Z,8.50
2022-08-27T09:33:56.089Z,8.57
2022-08-27T09:36:24.526Z,8.18
2022-08-27T09:38:58.076Z,8.25
2022-08-27T09:41:31.954Z,8.45
2022-08-27T09:46:35.996Z,8.45
2022-08-27T09:49:14.424Z,8.05
2022-08-27T09:51:44.018Z,8.43
2022-08-27T09:54:12.069Z,8.90
2022-08-27T09:56:47.145Z,9.55
2022-08-27T10:02:04.443Z,10.25
2022-08-27T10:04:50.709Z,9.70
2022-08-27T10:07:35.874Z,9.93
2022-08-27T10:10:11.052Z,10.15
2022-08-27T10:12:49.923Z,9.68
2022-08-27T10:15:16.988Z,10.43
2022-08-27T10:17:57.234Z,9.77
2022-08-27T10:20:47.299Z,9.98
2022-08-27T10:23:34.019Z,9.20
2022-08-27T10:26:24.384Z,9.77
2022-08-27T10:29:23.711Z,9.65
2022-08-27T10:32:35.288Z,9.43
2022-08-27T10:35:12.374Z,8.98
2022-08-27T10:37:54.325Z,10.13
2022-08-27T10:40:32.256Z,10.05
2022-08-27T10:43:13.774Z,9.00
2022-08-27T10:45:52.639Z,9.63
2022-08-27T10:48:29.171Z,8.10
2022-08-27T10:51:16.278Z,7.82
2022-08-27T10:54:05.936Z,8.00
2022-08-27T10:56:43.453Z,6.90
2022-08-27T10:59:31.374Z,7.63
2022-08-27T11:02:19.448Z,9.10
2022-08-27T11:04:52.941Z,8.13
2022-08-27T11:07:27.470Z,6.95
2022-08-27T11:10:07.418Z,8.05
2022-08-27T11:12:40.015Z,8.35
2022-08-27T11:15:30.183Z,7.68
2022-08-27T11:18:08.126Z,8.30
2022-08-27T11:20:37.265Z,8.32
2022-08-27T11:23:08.508Z,6.82
2022-08-27T11:25:40.932Z,6.95
2022-08-27T11:28:09.851Z,6.78
2022-08-27T11:30:45.346Z,7.07
2022-08-27T11:33:27.478Z,7.60
2022-08-27T11:35:54.010Z,6.43
2022-08-27T11:38:39.030Z,7.30
2022-08-27T11:43:45.597Z,7.03
2022-08-27T11:46:12.454Z,6.82
2022-08-27T11:48:42.774Z,6.93
2022-08-27T11:51:32.951Z,7.47
2022-08-27T11:54:02.376Z,7.65
2022-08-27T11:56:28.882Z,7.97
2022-08-27T11:58:56.720Z,7.43
2022-08-27T12:01:31.646Z,7.20
2022-08-27T12:04:06.613Z,7.82
2022-08-27T12:06:45.661Z,7.50
2022-08-27T12:09:23.964Z,7.53
2022-08-27T12:12:02.807Z,7.82
2022-08-27T12:14:32.859Z,8.60
2022-08-27T12:17:13.855Z,7.93
2022-08-27T12:20:08.631Z,7.30
2022-08-27T12:23:34.838Z,7.40
2022-08-27T12:26:25.469Z,7.82
2022-08-27T12:29:16.546Z,8.10
2022-08-27T12:31:46.477Z,7.93
2022-08-27T12:34:20.088Z,8.20
2022-08-27T12:36:53.427Z,7.65
2022-08-27T12:39:26.635Z,7.82
2022-08-27T12:41:55.810Z,7.93
2022-08-27T12:44:33.002Z,7.03
2022-08-27T12:47:04.324Z,7.03
2022-08-27T12:49:39.419Z,7.70
2022-08-27T12:53:03.682Z,6.75
2022-08-27T12:56:05.452Z,7.72
2022-08-27T12:58:52.117Z,6.80
2022-08-27T13:01:22.072Z,7.68
2022-08-27T13:03:54.225Z,7.90
2022-08-27T13:06:22.451Z,7.53
2022-08-27T13:08:54.704Z,7.60
2022-08-27T13:11:27.796Z,7.15
2022-08-27T13:14:10.228Z,9.10
2022-08-27T13:16:39.895Z,7.00
2022-08-27T13:19:08.188Z,7.30
2022-08-27T13:21:34.923Z,8.90
2022-08-27T13:24:06.714Z,8.02
2022-08-27T13:26:37.435Z,8.57
2022-08-27T13:29:06.509Z,8.07
2022-08-27T13:31:34.494Z,8.13
2022-08-27T13:34:05.416Z,8.27
2022-08-27T13:36:36.244Z,7.50
2022-08-27T13:39:06.164Z,8.45
2022-08-27T13:41:37.642Z,9.35
2022-08-27T13:44:14.520Z,8.30
2022-08-27T13:46:48.693Z,8.80
2022-08-27T13:49:22.561Z,8.18
2022-08-27T13:51:57.432Z,8.95
2022-08-27T13:54:24.534Z,8.25
2022-08-27T13:56:55.149Z,8.57
2022-08-27T13:59:21.934Z,8.57
2022-08-27T14:02:09.792Z,9.50
2022-08-27T14:04:43.281Z,8.00
2022-08-27T14:07:21.035Z,8.23
2022-08-27T14:09:54.711Z,8.35
2022-08-27T14:12:38.333Z,8.10
2022-08-27T14:15:20.076Z,8.55
2022-08-27T14:17:47.595Z,9.18
2022-08-27T14:20:16.526Z,8.40
2022-08-27T14:22:44.412Z,7.65
2022-08-27T14:25:12.183Z,8.60
2022-08-27T14:27:40.706Z,7.82
2022-08-27T14:30:19.299Z,8.32
2022-08-27T14:32:46.107Z,8.52
2022-08-27T14:35:12.743Z,8.13
2022-08-27T14:37:41.406Z,8.40
2022-08-27T14:40:10.397Z,9.02
2022-08-27T14:42:38.738Z,7.55
2022-08-27T14:45:07.410Z,8.73
2022-08-27T14:47:36.394Z,9.02
2022-08-27T14:50:04.241Z,8.45
2022-08-27T14:52:30.858Z,7.85
2022-08-27T14:54:57.407Z,8.43
2022-08-27T14:57:25.311Z,8.73
2022-08-27T14:59:51.875Z,8.50
2022-08-27T15:02:21.044Z,8.60
2022-08-27T15:04:48.225Z,7.65
2022-08-27T15:07:14.895Z,8.18
2022-08-27T15:09:41.846Z,8.05
2022-08-27T15:12:15.389Z,9.05
2022-08-27T15:14:53.035Z,7.60
2022-08-27T15:17:35.249Z,8.20
2022-08-27T15:20:07.487Z,7.63
2022-08-27T15:22:36.197Z,9.32
2022-08-27T15:25:05.381Z,8.27
2022-08-27T15:27:38.685Z,8.07
2022-08-27T15:30:07.832Z,7.90
2022-08-27T15:32:37.132Z,8.05
2022-08-27T15:35:08.266Z,8.98
2022-08-27T15:37:35.457Z,8.20
2022-08-27T15:40:02.645Z,8.65
2022-08-27T15:42:29.427Z,8.15
2022-08-27T15:44:57.343Z,8.05
2022-08-27T15:47:25.124Z,8.55
2022-08-27T15:49:52.088Z,8.85
2022-08-27T15:52:22.149Z,10.10
2022-08-27T15:54:50.203Z,8.43
2022-08-27T15:57:18.518Z,8.57
2022-08-27T15:59:45.130Z,9.35
2022-08-27T16:02:18.086Z,8.60
2022-08-27T16:04:45.471Z,8.80
2022-08-27T16:07:16.574Z,8.85
2022-08-27T16:09:46.937Z,8.35
2022-08-27T16:12:27.508Z,8.80
2022-08-27T16:14:55.274Z,10.63
2022-08-27T16:17:22.895Z,9.32
2022-08-27T16:19:49.676Z,9.82
2022-08-27T16:22:16.409Z,8.60
2022-08-27T16:24:43.360Z,9.07
2022-08-27T16:27:10.603Z,9.48
2022-08-27T16:29:37.747Z,8.75
2022-08-27T16:32:05.112Z,9.63
2022-08-27T16:34:32.240Z,9.57
2022-08-27T16:36:59.998Z,9.40
2022-08-27T16:39:31.785Z,8.77
2022-08-27T16:42:00.707Z,8.98
2022-08-27T16:44:27.569Z,9.27
2022-08-27T16:46:54.119Z,10.15
2022-08-27T16:49:39.512Z,10.13
2022-08-27T16:54:35.055Z,9.73
2022-08-27T16:57:01.902Z,9.23
2022-08-27T16:59:28.495Z,9.05
2022-08-27T17:01:55.547Z,9.32
2022-08-27T17:04:29.624Z,9.65
2022-08-27T17:07:03.362Z,9.02
2022-08-27T17:09:30.269Z,9.23
2022-08-27T17:11:58.051Z,10.10
2022-08-27T17:14:25.132Z,9.80
2022-08-27T17:16:54.199Z,10.15
2022-08-27T17:19:26.189Z,9.63
2022-08-27T17:21:54.913Z,9.45
2022-08-27T17:24:21.920Z,9.80
2022-08-27T17:26:48.522Z,9.40
2022-08-27T17:29:15.197Z,17.90
2022-08-27T17:31:42.799Z,9.93
2022-08-27T17:34:16.843Z,10.00
2022-08-27T17:36:44.532Z,9.45
2022-08-27T17:39:12.118Z,9.25
2022-08-27T17:41:45.234Z,9.65
2022-08-27T17:44:20.802Z,10.35
2022-08-27T17:46:48.435Z,8.98
2022-08-27T17:49:15.219Z,9.60
2022-08-27T17:51:41.920Z,9.02
2022-08-27T17:54:23.944Z,9.75
2022-08-27T17:56:50.622Z,8.57
2022-08-27T17:59:17.211Z,9.38
2022-08-27T18:01:43.896Z,9.98
2022-08-27T18:04:10.550Z,9.45
2022-08-27T18:06:37.196Z,10.45
2022-08-27T18:09:04.562Z,9.43
2022-08-27T18:11:31.787Z,11.00
2022-08-27T18:14:04.553Z,9.80
2022-08-27T18:16:32.319Z,9.57
2022-08-27T18:18:58.944Z,9.85
2022-08-27T18:21:26.229Z,10.23
2022-08-27T18:23:54.189Z,9.43
2022-08-27T18:26:23.292Z,10.38
2022-08-27T18:28:50.219Z,10.65
2022-08-27T18:31:20.350Z,11.68
2022-08-27T18:33:46.999Z,10.80
2022-08-27T18:36:14.930Z,10.23
2022-08-27T18:38:41.585Z,10.85
2022-08-27T18:41:08.511Z,10.05
2022-08-27T18:43:35.720Z,10.27
2022-08-27T18:46:04.657Z,10.30
2022-08-27T18:48:31.519Z,10.98
2022-08-27T18:51:00.643Z,11.85
2022-08-27T18:53:31.786Z,11.82
2022-08-27T18:55:59.011Z,11.20
2022-08-27T18:58:26.667Z,10.50
2022-08-27T19:01:00.274Z,10.82
2022-08-27T19:03:31.328Z,10.73
2022-08-27T19:05:58.275Z,10.73
2022-08-27T19:08:28.279Z,11.85
2022-08-27T19:10:55.632Z,11.35
2022-08-27T19:13:22.899Z,11.45
2022-08-27T19:15:56.926Z,11.63
2022-08-27T19:18:26.995Z,10.70
2022-08-27T19:20:53.653Z,11.02
2022-08-27T19:23:22.265Z,11.93
2022-08-27T19:25:51.109Z,10.68
2022-08-27T19:28:22.674Z,11.60
2022-08-27T19:30:49.380Z,10.30
2022-08-27T19:33:16.026Z,11.27
2022-08-27T19:35:43.010Z,11.00
2022-08-27T19:38:13.835Z,10.90
2022-08-27T19:40:41.317Z,11.35
2022-08-27T19:43:08.732Z,11.48
2022-08-27T19:45:36.062Z,11.48
2022-08-27T19:48:07.366Z,11.00
2022-08-27T19:50:33.973Z,10.25
2022-08-27T19:53:00.590Z,11.57
2022-08-27T19:55:27.195Z,10.68
2022-08-27T19:57:53.877Z,10.65
2022-08-27T20:00:22.481Z,11.50
2022-08-27T20:02:50.729Z,6.80
2022-08-27T20:05:19.326Z,5.97
2022-08-27T20:07:51.206Z,3.70
2022-08-27T20:10:25.761Z,3.38
2022-08-27T20:12:58.237Z,3.60
2022-08-27T20:15:24.910Z,4.40
2022-08-27T20:17:52.782Z,4.07
2022-08-27T20:20:22.603Z,4.43
2022-08-27T20:22:49.677Z,4.15
2022-08-27T20:25:16.502Z,4.72
2022-08-27T20:27:43.158Z,6.13
2022-08-27T20:30:12.583Z,6.78
2022-08-27T20:32:39.593Z,7.35
2022-08-27T20:35:07.700Z,8.85
2022-08-27T20:37:38.950Z,8.70
2022-08-27T20:40:16.577Z,7.65
2022-08-27T20:42:44.382Z,9.70
2022-08-27T20:45:12.491Z,9.02
2022-08-27T20:47:40.650Z,9.95
2022-08-27T20:50:08.168Z,10.40
2022-08-27T20:52:36.432Z,9.73
2022-08-27T20:55:03.998Z,8.02
2022-08-27T20:57:30.698Z,7.82
2022-08-27T21:00:15.858Z,7.45
2022-08-27T21:02:42.516Z,7.97
2022-08-27T21:05:13.293Z,7.68
2022-08-27T21:07:40.045Z,7.63
2022-08-27T21:10:07.912Z,6.93
2022-08-27T21:12:35.394Z,8.18
2022-08-27T21:15:04.044Z,8.50
2022-08-27T21:17:30.634Z,7.90
2022-08-27T21:19:57.590Z,8.18
2022-08-27T21:22:25.039Z,8.52
2022-08-27T21:24:52.136Z,6.85
2022-08-27T21:27:21.090Z,6.15
2022-08-27T21:29:48.438Z,6.07
2022-08-27T21:32:15.078Z,5.78
2022-08-27T21:34:42.153Z,4.75
2022-08-27T21:37:11.204Z,5.20
2022-08-27T21:39:39.386Z,4.32
2022-08-27T21:42:06.630Z,4.22
2022-08-27T21:44:34.313Z,4.60
2022-08-27T21:47:01.819Z,4.72
2022-08-27T21:49:28.750Z,4.57
2022-08-27T21:51:55.324Z,4.60
2022-08-27T21:54:23.475Z,4.15
2022-08-27T21:56:53.106Z,5.00
2022-08-27T21:59:20.089Z,4.97
2022-08-27T22:01:46.722Z,5.15
2022-08-27T22:04:13.441Z,5.45
2022-08-27T22:06:40.025Z,5.38
2022-08-27T22:09:06.605Z,5.65
2022-08-27T22:11:33.179Z,5.90
2022-08-27T22:13:59.787Z,5.85
2022-08-27T22:16:26.439Z,5.72
2022-08-27T22:18:55.076Z,6.05
2022-08-27T22:21:22.978Z,6.82
2022-08-27T22:23:51.535Z,7.07
2022-08-27T22:26:19.732Z,7.38
2022-08-27T22:28:46.946Z,7.00
2022-08-27T22:31:14.012Z,7.70
2022-08-27T22:33:40.696Z,7.53
2022-08-27T22:36:07.701Z,7.90
2022-08-27T22:38:34.331Z,7.07
2022-08-27T22:41:01.340Z,7.68
2022-08-27T22:43:28.134Z,7.85
2022-08-27T22:45:54.704Z,7.25
2022-08-27T22:48:21.341Z,7.45
2022-08-27T22:50:47.974Z,7.03
2022-08-27T22:53:14.793Z,7.95
2022-08-27T22:55:41.382Z,7.50
2022-08-27T22:58:08.085Z,7.82
2022-08-27T23:00:37.432Z,7.32
2022-08-27T23:03:06.853Z,7.13
2022-08-27T23:05:41.783Z,6.15
2022-08-27T23:08:11.509Z,6.82
2022-08-27T23:10:38.792Z,6.93
2022-08-27T23:13:06.967Z,7.88
2022-08-27T23:15:34.508Z,7.18
2022-08-27T23:18:01.679Z,6.38
2022-08-27T23:20:29.405Z,7.38
2022-08-27T23:22:56.361Z,7.80
2022-08-27T23:25:43.752Z,7.80
2022-08-27T23:28:14.768Z,5.80
2022-08-27T23:30:43.677Z,7.13
2022-08-27T23:33:10.482Z,6.30
2022-08-27T23:35:37.482Z,6.68
2022-08-27T23:38:05.032Z,7.22
2022-08-27T23:40:31.787Z,7.35
2022-08-27T23:42:58.687Z,7.53
2022-08-27T23:45:26.768Z,6.85
2022-08-27T23:47:53.833Z,7.00
2022-08-27T23:50:24.684Z,6.90
2022-08-27T23:53:01.772Z,7.60
2022-08-27T23:55:28.830Z,7.43
2022-08-27T23:57:57.729Z,6.57
